Time;durP1;ratioP1;P1;durP2;ratioP2;P2;SDS_P1;SDS_P2;PMS_P1;PMS_P2;Temp;Humidity;BMP_temperature;BMP_pressure;BME280_temperature;BME280_humidity;BME280_pressure;Samples;Min_cycle;Max_cycle;Signal;HPM_P1;HPM_P2
2021/01/11 00:04:07;;;;;;;18.35;12.32;;;3.20;99.90;;;;;;6195998;22;557678;-56
2021/01/11 01:07:06;;;;;;;23.30;15.65;;;3.50;99.90;;;;;;6219587;22;20188;-61
2021/01/11 01:09:32;;;;;;;24.75;15.05;;;3.50;99.90;;;;;;6218217;23;20530;-61
2021/01/11 01:11:57;;;;;;;22.10;14.80;;;3.50;99.90;;;;;;6218125;23;20144;-61
2021/01/11 01:14:23;;;;;;;21.38;14.52;;;3.50;99.90;;;;;;6219155;23;20149;-56
2021/01/11 01:16:48;;;;;;;23.73;15.13;;;3.50;99.90;;;;;;6218075;23;20434;-56
2021/01/11 01:19:14;;;;;;;23.15;14.45;;;3.50;99.90;;;;;;6218114;23;20609;-56
2021/01/11 01:21:39;;;;;;;21.77;15.02;;;3.50;99.90;;;;;;6218022;23;20160;-56
2021/01/11 01:24:05;;;;;;;19.75;13.65;;;3.50;99.90;;;;;;6218144;23;20156;-56
2021/01/11 01:26:31;;;;;;;20.00;14.07;;;3.50;99.90;;;;;;6217716;23;20573;-56
2021/01/11 01:28:57;;;;;;;20.83;13.60;;;3.50;99.90;;;;;;6218085;23;20170;-56
2021/01/11 01:31:22;;;;;;;21.40;13.43;;;3.60;99.90;;;;;;6218269;23;20149;-56
2021/01/11 01:33:48;;;;;;;21.65;13.75;;;3.60;99.90;;;;;;6218008;23;20167;-56
2021/01/11 01:36:13;;;;;;;20.77;13.77;;;3.60;99.90;;;;;;6218333;23;20172;-56
2021/01/11 01:38:38;;;;;;;23.60;15.48;;;3.60;99.90;;;;;;6217823;23;20149;-56
2021/01/11 01:41:04;;;;;;;22.98;14.23;;;3.60;99.90;;;;;;6217993;23;20148;-56
2021/01/11 01:43:30;;;;;;;26.52;15.23;;;3.60;99.90;;;;;;6217833;23;20145;-56
2021/01/11 01:45:55;;;;;;;22.73;15.43;;;3.60;99.90;;;;;;6218096;23;20483;-56
2021/01/11 01:48:21;;;;;;;23.35;15.80;;;3.60;99.90;;;;;;6218108;23;20145;-56
2021/01/11 01:50:46;;;;;;;20.80;14.77;;;3.60;99.90;;;;;;6217889;23;20141;-56
2021/01/11 01:53:12;;;;;;;25.02;15.63;;;3.60;99.90;;;;;;6218078;23;20141;-56
2021/01/11 01:55:37;;;;;;;24.58;14.63;;;3.70;99.90;;;;;;6191634;23;20565;-57
2021/01/11 01:58:04;;;;;;;25.05;15.60;;;3.70;99.90;;;;;;6217975;23;20446;-56
2021/01/11 02:00:30;;;;;;;25.48;16.67;;;3.70;99.90;;;;;;6217974;23;20149;-56
2021/01/11 02:02:56;;;;;;;26.05;16.58;;;3.70;99.90;;;;;;6217968;23;20152;-56
2021/01/11 02:05:21;;;;;;;25.63;16.27;;;3.70;99.90;;;;;;6217973;23;20169;-56
2021/01/11 02:07:53;;;;;;;24.45;16.08;;;3.80;99.90;;;;;;6217727;23;20171;-56
2021/01/11 02:10:47;;;;;;;22.95;15.15;;;3.80;99.90;;;;;;6217634;23;20137;-56
2021/01/11 02:13:28;;;;;;;22.52;15.18;;;3.80;99.90;;;;;;6191454;23;20148;-56
2021/01/11 02:15:57;;;;;;;20.33;13.57;;;3.80;99.90;;;;;;6191756;23;20203;-56
2021/01/11 02:18:47;;;;;;;19.30;13.02;;;3.70;99.90;;;;;;6191633;23;20176;-56
2021/01/11 02:21:24;;;;;;;19.17;13.57;;;3.70;99.90;;;;;;6217970;23;20145;-56
2021/01/11 02:24:26;;;;;;;17.98;12.45;;;3.70;99.90;;;;;;6217732;23;20149;-56
2021/01/11 02:27:15;;;;;;;18.63;12.45;;;3.70;99.90;;;;;;6217813;23;20464;-56
2021/01/11 02:30:06;;;;;;;18.63;12.65;;;3.70;99.90;;;;;;6191779;23;20125;-56
2021/01/11 02:32:32;;;;;;;18.75;12.27;;;3.70;99.90;;;;;;6191648;23;20593;-56
2021/01/11 02:35:00;;;;;;;18.25;12.57;;;3.70;99.90;;;;;;6191563;23;20596;-56
2021/01/11 02:37:26;;;;;;;17.75;12.75;;;3.70;99.90;;;;;;6192016;23;20145;-56
2021/01/11 02:39:52;;;;;;;16.80;11.77;;;3.70;99.90;;;;;;6217863;23;20156;-56
2021/01/11 02:42:17;;;;;;;18.33;12.30;;;3.70;99.90;;;;;;6191646;23;20163;-56
2021/01/11 02:44:43;;;;;;;16.35;11.77;;;3.70;99.90;;;;;;6217848;23;20168;-56
2021/01/11 02:47:08;;;;;;;17.85;11.70;;;3.70;99.90;;;;;;6217457;23;20146;-56
2021/01/11 02:49:41;;;;;;;16.73;11.88;;;3.70;99.90;;;;;;6217705;23;20149;-56
2021/01/11 02:52:14;;;;;;;16.83;12.25;;;3.60;99.90;;;;;;6191640;23;20449;-56
2021/01/11 02:54:45;;;;;;;17.15;11.82;;;3.70;99.90;;;;;;6191255;23;20195;-56
2021/01/11 02:57:24;;;;;;;16.05;11.48;;;3.70;99.90;;;;;;6217775;23;20154;-55
2021/01/11 02:59:57;;;;;;;18.85;12.75;;;3.70;99.90;;;;;;6191337;23;20172;-55
2021/01/11 03:02:25;;;;;;;17.20;10.98;;;3.60;99.90;;;;;;6191511;23;20125;-55
2021/01/11 03:04:51;;;;;;;18.48;12.43;;;3.60;99.90;;;;;;6191127;23;20145;-55
2021/01/11 03:07:17;;;;;;;17.80;12.07;;;3.60;99.90;;;;;;6217778;23;20156;-55
2021/01/11 03:09:43;;;;;;;17.77;12.10;;;3.60;99.90;;;;;;6217272;23;20604;-55
2021/01/11 03:12:10;;;;;;;16.40;11.82;;;3.60;99.90;;;;;;6217917;23;20145;-56
2021/01/11 03:14:36;;;;;;;17.63;12.45;;;3.60;99.90;;;;;;6219163;23;20152;-56
2021/01/11 03:17:01;;;;;;;18.23;12.63;;;3.60;99.90;;;;;;6219300;23;20501;-56
2021/01/11 03:19:27;;;;;;;16.85;11.98;;;3.50;99.90;;;;;;6219137;23;20565;-56
2021/01/11 03:21:52;;;;;;;17.25;12.75;;;3.50;99.90;;;;;;6219222;23;20148;-56
2021/01/11 03:24:19;;;;;;;19.00;12.57;;;3.60;99.90;;;;;;6219077;23;20141;-56
2021/01/11 03:26:45;;;;;;;19.48;12.88;;;3.60;99.90;;;;;;6219167;23;20176;-56
2021/01/11 03:29:14;;;;;;;20.73;13.10;;;3.60;99.90;;;;;;6218992;23;20141;-56
2021/01/11 03:31:40;;;;;;;19.35;12.50;;;3.60;99.90;;;;;;6219146;23;20141;-56
2021/01/11 03:34:07;;;;;;;17.60;11.93;;;3.60;99.90;;;;;;6219000;23;20141;-56
2021/01/11 03:36:32;;;;;;;20.50;13.63;;;3.60;99.90;;;;;;6219411;23;20159;-56
2021/01/11 03:38:58;;;;;;;21.23;13.68;;;3.70;99.90;;;;;;6219329;23;20145;-56
2021/01/11 03:41:24;;;;;;;19.00;13.07;;;3.70;99.90;;;;;;6219080;23;20163;-56
2021/01/11 03:43:49;;;;;;;19.02;12.65;;;3.70;99.90;;;;;;6218924;23;20149;-55
2021/01/11 03:46:16;;;;;;;22.92;13.68;;;3.70;99.90;;;;;;6218942;23;20169;-56
2021/01/11 03:48:43;;;;;;;18.75;12.43;;;3.70;99.90;;;;;;6219301;23;20156;-56
2021/01/11 03:51:09;;;;;;;21.23;13.27;;;3.80;99.90;;;;;;6218974;23;20151;-56
2021/01/11 03:53:35;;;;;;;20.85;13.13;;;3.80;99.90;;;;;;6219236;23;20496;-56
2021/01/11 03:56:07;;;;;;;20.90;13.50;;;3.80;99.90;;;;;;6219240;23;20141;-56
2021/01/11 03:58:32;;;;;;;19.83;12.98;;;3.80;99.90;;;;;;6219115;23;20186;-56
2021/01/11 04:00:59;;;;;;;22.65;13.93;;;3.80;99.90;;;;;;6219189;23;20199;-61
2021/01/11 04:03:25;;;;;;;19.98;12.65;;;3.90;99.90;;;;;;6218983;23;20211;-61
2021/01/11 04:05:50;;;;;;;20.85;13.07;;;3.90;99.90;;;;;;6218666;23;20168;-61
2021/01/11 04:08:16;;;;;;;19.85;13.52;;;3.90;99.90;;;;;;6218553;23;20585;-61
2021/01/11 04:10:42;;;;;;;20.60;13.57;;;3.90;99.90;;;;;;6219015;23;20141;-61
2021/01/11 04:13:07;;;;;;;27.08;13.05;;;3.90;99.90;;;;;;6219025;23;20145;-61
2021/01/11 04:15:33;;;;;;;18.98;12.25;;;3.90;99.90;;;;;;6192562;23;20149;-61
2021/01/11 04:17:59;;;;;;;21.92;13.75;;;3.90;99.90;;;;;;6218721;23;20149;-61
2021/01/11 04:20:25;;;;;;;20.33;12.70;;;3.90;99.90;;;;;;6218581;23;20151;-61
2021/01/11 04:22:51;;;;;;;20.80;13.48;;;4.00;99.90;;;;;;6218749;23;20145;-61
2021/01/11 04:25:16;;;;;;;23.52;13.63;;;4.00;99.90;;;;;;6218741;23;20187;-61
2021/01/11 04:27:42;;;;;;;20.17;12.77;;;4.00;99.90;;;;;;6218579;23;20141;-61
2021/01/11 04:30:09;;;;;;;20.25;13.05;;;3.90;99.90;;;;;;6218353;23;20602;-61
2021/01/11 04:32:35;;;;;;;20.58;12.25;;;3.90;99.90;;;;;;6218824;23;20496;-61
2021/01/11 04:35:02;;;;;;;20.88;13.18;;;4.00;99.90;;;;;;6218648;23;20145;-60
2021/01/11 04:37:28;;;;;;;23.83;13.40;;;3.90;99.90;;;;;;6218430;23;20167;-61
2021/01/11 04:39:54;;;;;;;25.17;13.93;;;3.90;99.90;;;;;;6218637;23;20149;-61
2021/01/11 04:42:33;;;;;;;24.55;13.90;;;3.90;99.90;;;;;;6218442;23;20224;-61
2021/01/11 04:44:58;;;;;;;20.75;13.15;;;4.00;99.90;;;;;;6218233;23;20129;-61
2021/01/11 04:47:24;;;;;;;22.98;14.25;;;4.00;99.90;;;;;;6192203;23;20434;-61
2021/01/11 04:49:53;;;;;;;20.80;13.40;;;4.00;99.90;;;;;;6218340;23;20155;-61
2021/01/11 04:52:20;;;;;;;21.70;13.10;;;4.00;99.90;;;;;;6219601;23;20203;-62
2021/01/11 04:54:52;;;;;;;19.98;12.65;;;4.00;99.90;;;;;;6218525;23;20144;-61
2021/01/11 04:57:21;;;;;;;21.58;12.57;;;4.00;99.90;;;;;;6218964;23;20275;-61
2021/01/11 04:59:50;;;;;;;21.38;12.95;;;4.00;99.90;;;;;;6218135;23;20170;-61
2021/01/11 05:02:22;;;;;;;20.67;13.30;;;4.00;99.90;;;;;;6191898;23;20149;-61
2021/01/11 05:04:48;;;;;;;20.90;13.10;;;4.00;99.90;;;;;;6218137;23;20439;-61
2021/01/11 05:07:21;;;;;;;20.85;12.65;;;4.00;99.90;;;;;;6217817;23;20153;-60
2021/01/11 05:09:47;;;;;;;21.05;13.43;;;4.10;99.90;;;;;;6218023;23;20156;-61
2021/01/11 05:12:15;;;;;;;21.80;13.32;;;4.10;99.90;;;;;;6191697;23;20145;-61
2021/01/11 05:14:42;;;;;;;22.08;13.25;;;4.10;99.90;;;;;;6217799;23;20269;-61
2021/01/11 05:17:09;;;;;;;20.25;13.32;;;4.10;99.90;;;;;;6217745;23;20465;-61
2021/01/11 05:19:35;;;;;;;23.42;14.52;;;4.10;99.90;;;;;;6217997;23;20145;-61
2021/01/11 05:22:00;;;;;;;20.45;13.30;;;4.10;99.90;;;;;;6217945;23;20212;-61
2021/01/11 05:24:45;;;;;;;21.25;12.93;;;4.10;99.90;;;;;;6218158;23;20534;-61
2021/01/11 05:27:11;;;;;;;20.88;13.43;;;4.10;99.90;;;;;;6218290;23;20191;-61
2021/01/11 05:29:38;;;;;;;20.20;12.73;;;4.10;99.90;;;;;;6217778;23;20484;-61
2021/01/11 05:32:09;;;;;;;22.05;13.57;;;4.10;99.90;;;;;;6218224;23;20141;-61
2021/01/11 05:34:46;;;;;;;22.42;13.43;;;4.10;99.90;;;;;;6217819;23;20156;-61
2021/01/11 05:37:38;;;;;;;21.05;13.13;;;4.10;99.90;;;;;;6218523;23;20546;-61
2021/01/11 05:40:12;;;;;;;23.63;13.15;;;4.10;99.90;;;;;;6218205;23;20133;-61
2021/01/11 05:42:40;;;;;;;21.83;13.85;;;4.10;99.90;;;;;;6217775;23;20558;-61
2021/01/11 05:45:13;;;;;;;23.75;13.75;;;4.10;99.90;;;;;;6217857;23;20234;-61
2021/01/11 05:48:07;;;;;;;22.48;14.10;;;4.10;99.90;;;;;;6217874;23;20222;-61
2021/01/11 05:50:40;;;;;;;23.55;13.82;;;4.10;99.90;;;;;;6218040;23;20138;-61
2021/01/11 05:53:23;;;;;;;23.25;14.30;;;4.10;99.90;;;;;;6218075;23;20144;-61
2021/01/11 05:55:53;;;;;;;27.70;15.05;;;4.10;99.90;;;;;;6217718;23;20665;-61
2021/01/11 05:58:19;;;;;;;23.88;13.88;;;4.10;99.90;;;;;;6218252;23;20147;-61
2021/01/11 06:00:45;;;;;;;25.13;14.27;;;4.10;99.90;;;;;;6217818;23;20153;-61
2021/01/11 06:03:11;;;;;;;24.95;14.75;;;4.10;99.90;;;;;;6217580;23;20160;-61
2021/01/11 06:05:37;;;;;;;25.65;14.65;;;4.10;99.90;;;;;;6217717;23;20173;-61
2021/01/11 06:08:05;;;;;;;26.67;15.50;;;4.10;99.90;;;;;;6217530;23;20247;-61
2021/01/11 06:10:31;;;;;;;26.25;15.43;;;4.10;99.90;;;;;;6218132;23;20145;-61
2021/01/11 06:12:57;;;;;;;27.85;16.10;;;4.10;99.90;;;;;;6217918;23;20603;-61
2021/01/11 06:15:25;;;;;;;29.50;16.10;;;4.10;99.90;;;;;;6217635;23;20159;-61
2021/01/11 06:17:52;;;;;;;29.40;17.23;;;4.10;99.90;;;;;;6217524;23;20149;-61
2021/01/11 06:20:25;;;;;;;26.80;14.77;;;4.10;99.90;;;;;;6217718;23;20176;-61
2021/01/11 06:22:50;;;;;;;26.98;15.18;;;4.10;99.90;;;;;;6217526;23;20435;-61
2021/01/11 06:25:25;;;;;;;26.10;15.38;;;4.00;99.90;;;;;;6217402;23;20247;-61
2021/01/11 06:28:10;;;;;;;28.92;15.70;;;4.00;99.90;;;;;;6217925;23;20208;-61
2021/01/11 06:30:40;;;;;;;27.98;16.13;;;4.00;99.90;;;;;;6217752;23;20152;-61
2021/01/11 06:33:09;;;;;;;27.48;15.32;;;4.00;99.90;;;;;;6217822;23;20152;-61
2021/01/11 06:35:54;;;;;;;27.08;15.98;;;4.00;99.90;;;;;;6192058;23;20214;-61
2021/01/11 06:38:25;;;;;;;27.08;15.50;;;4.00;99.90;;;;;;6216914;23;20153;-61
2021/01/11 06:40:55;;;;;;;26.60;15.63;;;4.00;99.90;;;;;;6217655;23;20133;-61
2021/01/11 06:43:22;;;;;;;25.20;14.80;;;3.90;99.90;;;;;;6217414;23;20452;-61
2021/01/11 06:45:49;;;;;;;24.88;14.80;;;3.90;99.90;;;;;;6217421;23;20177;-61
2021/01/11 06:48:17;;;;;;;24.30;14.02;;;3.90;99.90;;;;;;6218840;23;20141;-61
2021/01/11 06:50:44;;;;;;;23.73;14.85;;;3.90;99.90;;;;;;6219327;23;20144;-61
2021/01/11 06:53:10;;;;;;;23.85;14.48;;;3.90;99.90;;;;;;6219656;23;20144;-61
2021/01/11 08:35:51;;;;;;;12.77;8.60;;;3.70;99.90;;;;;;5834894;22;20206;31
2021/01/11 08:53:38;;;;;;;11.80;8.20;;;3.80;99.90;;;;;;6251996;22;20541;-57
2021/01/11 09:13:47;;;;;;;12.13;7.88;;;3.80;99.90;;;;;;6271554;22;387230;31
2021/01/11 09:25:27;;;;;;;10.68;7.80;;;4.00;99.90;;;;;;5741870;22;20598;31
2021/01/11 09:32:17;;;;;;;12.23;8.02;;;4.00;99.90;;;;;;6242158;22;20205;31
2021/01/11 09:34:43;;;;;;;10.38;7.22;;;4.00;99.90;;;;;;6219382;22;390801;31
2021/01/11 09:39:33;;;;;;;11.30;8.00;;;4.00;99.90;;;;;;6234342;22;20198;31
2021/01/11 09:44:24;;;;;;;12.05;8.52;;;4.00;99.90;;;;;;6233898;22;20205;31
2021/01/11 10:29:42;;;;;;;12.93;9.75;;;4.10;99.90;;;;;;6229624;22;20539;31
2021/01/11 10:45:33;;;;;;;13.32;9.77;;;4.20;99.90;;;;;;6141176;23;20207;31
2021/01/11 11:31:51;;;;;;;14.40;11.03;;;3.90;99.90;;;;;;6235374;22;657562;31
2021/01/11 11:57:20;;;;;;;15.85;11.93;;;4.00;99.90;;;;;;6206713;22;20249;31
2021/01/11 12:09:23;;;;;;;20.02;12.98;;;4.00;99.90;;;;;;5573244;23;521352;31
2021/01/11 12:33:02;;;;;;;19.45;13.82;;;3.90;99.90;;;;;;6142986;23;20219;31
2021/01/11 12:40:12;;;;;;;21.13;14.50;;;3.90;99.90;;;;;;6187203;22;20699;-58
2021/01/11 12:55:42;;;;;;;20.65;14.07;;;3.90;99.90;;;;;;6164499;23;20206;31
2021/01/11 13:17:56;;;;;;;24.67;15.55;;;3.90;99.90;;;;;;6285919;22;20208;31
2021/01/11 13:31:19;;;;;;;26.88;15.75;;;3.80;99.90;;;;;;5725395;23;21364;31
2021/01/11 13:43:02;;;;;;;25.60;16.35;;;3.80;99.90;;;;;;6203679;22;20202;31
2021/01/11 13:51:41;;;;;;;26.13;15.82;;;3.80;99.90;;;;;;6227597;22;20209;31
2021/01/11 14:08:39;;;;;;;28.85;16.77;;;3.80;99.90;;;;;;6180403;22;387998;31
2021/01/11 14:44:27;;;;;;;26.33;16.15;;;3.70;99.90;;;;;;6221665;22;21281;31
2021/01/11 15:03:19;;;;;;;24.85;14.75;;;3.50;99.90;;;;;;6273830;22;392022;31
2021/01/11 15:13:01;;;;;;;27.23;15.57;;;3.60;99.90;;;;;;6293812;22;20517;31
2021/01/11 15:29:58;;;;;;;25.02;15.30;;;3.50;99.90;;;;;;6262361;22;20217;31
2021/01/11 15:37:18;;;;;;;22.55;14.73;;;3.50;99.90;;;;;;6265526;22;20198;31
2021/01/11 15:44:34;;;;;;;20.90;13.82;;;3.40;99.90;;;;;;6245154;22;413079;31
2021/01/11 15:52:19;;;;;;;23.02;15.05;;;3.40;99.90;;;;;;5931331;22;20580;31
2021/01/11 16:01:53;;;;;;;22.80;13.93;;;3.40;99.90;;;;;;6259679;22;20212;-55
2021/01/11 16:06:44;;;;;;;19.90;11.82;;;3.40;99.90;;;;;;6232437;22;20759;31
2021/01/11 16:31:41;;;;;;;17.92;12.10;;;3.50;99.90;;;;;;6238870;22;20197;31
2021/01/11 16:37:08;;;;;;;17.40;11.35;;;3.50;99.90;;;;;;6210166;22;20536;31
2021/01/11 16:51:45;;;;;;;19.58;11.93;;;3.40;99.90;;;;;;6206163;22;26856;31
2021/01/11 16:54:10;;;;;;;19.23;11.88;;;3.30;99.90;;;;;;6212186;22;20195;31
2021/01/11 17:08:43;;;;;;;16.63;11.88;;;3.30;99.90;;;;;;6177533;23;20422;31
2021/01/11 17:16:47;;;;;;;18.17;11.65;;;3.30;99.90;;;;;;6292402;22;21505;31
2021/01/11 17:36:27;;;;;;;16.40;11.27;;;3.40;99.90;;;;;;6296450;22;20570;31
2021/01/11 17:44:28;;;;;;;16.55;11.25;;;3.40;99.90;;;;;;6334499;22;21805;31
2021/01/11 17:51:09;;;;;;;17.08;11.18;;;3.40;99.90;;;;;;6258348;22;23580;-57
2021/01/11 17:58:07;;;;;;;17.90;11.95;;;3.40;99.90;;;;;;6321801;22;20517;31
2021/01/11 18:09:53;;;;;;;17.05;12.02;;;3.40;99.90;;;;;;6157747;22;705521;31
2021/01/11 18:12:18;;;;;;;18.58;12.18;;;3.40;99.90;;;;;;6175959;23;20184;31
2021/01/11 18:19:24;;;;;;;18.00;11.70;;;3.40;99.90;;;;;;6292180;22;20515;-61
2021/01/11 18:24:17;;;;;;;18.67;12.82;;;3.50;99.90;;;;;;6270005;22;20197;-59
2021/01/11 18:27:14;;;;;;;19.48;12.35;;;3.50;99.90;;;;;;6296268;22;20527;31
2021/01/11 18:41:48;;;;;;;18.10;12.82;;;3.50;99.90;;;;;;6256614;22;20281;31
2021/01/11 18:57:55;;;;;;;23.10;14.05;;;3.60;99.90;;;;;;6224958;22;20935;-60
2021/01/11 19:04:51;;;;;;;21.45;13.75;;;3.60;99.90;;;;;;6320762;22;20199;-57
2021/01/11 19:12:08;;;;;;;19.77;13.68;;;3.70;99.90;;;;;;6224268;22;20205;31
2021/01/11 19:14:33;;;;;;;18.15;12.98;;;3.70;99.90;;;;;;6207939;22;390975;31
2021/01/11 19:29:09;;;;;;;22.67;14.07;;;3.70;99.90;;;;;;6211065;22;387464;31
2021/01/11 19:33:59;;;;;;;19.15;12.48;;;3.80;99.90;;;;;;6227675;22;20809;31
2021/01/11 19:37:38;;;;;;;20.95;13.60;;;3.80;99.90;;;;;;6264037;22;20283;31
2021/01/11 20:29:39;;;;;;;24.38;14.45;;;3.90;99.90;;;;;;5793212;23;20215;31
2021/01/11 21:10:53;;;;;;;21.92;13.68;;;4.20;99.90;;;;;;5801890;23;21287;31
2021/01/11 21:29:18;;;;;;;26.50;16.25;;;4.20;99.90;;;;;;6197148;22;20230;31
2021/01/11 21:37:34;;;;;;;;;;;;;;;;;;;;;
2021/01/11 22:15:05;;;;;;;18.33;13.88;;;4.30;99.90;;;;;;6205633;22;20535;31
2021/01/11 22:52:13;;;;;;;16.42;11.50;;;4.30;99.90;;;;;;6263684;22;20503;31
2021/01/11 22:54:39;;;;;;;15.95;10.63;;;4.30;99.90;;;;;;6230795;22;20193;31
2021/01/11 23:00:03;;;;;;;16.10;11.43;;;4.30;99.90;;;;;;6241325;22;20534;31
2021/01/11 23:07:19;;;;;;;15.07;11.55;;;4.30;99.90;;;;;;6199558;22;20191;31
2021/01/11 23:12:10;;;;;;;14.30;10.07;;;4.20;99.90;;;;;;6187307;22;403470;31
2021/01/11 23:26:12;;;;;;;14.20;10.88;;;4.20;99.90;;;;;;5564591;23;499990;31
2021/01/11 23:28:38;;;;;;;13.77;10.40;;;4.20;99.90;;;;;;5524447;23;20199;31
2021/01/11 23:31:05;;;;;;;13.60;9.98;;;4.20;99.90;;;;;;5470354;23;20275;31
